createdAt,value
2023-02-17T00:02:00.164Z,5.88
2023-02-17T00:04:04.496Z,6.00
2023-02-17T00:06:09.904Z,6.25
2023-02-17T00:08:13.885Z,6.10
2023-02-17T00:10:18.270Z,5.68
2023-02-17T00:12:22.537Z,7.22
2023-02-17T00:14:26.805Z,6.55
2023-02-17T00:16:31.226Z,7.53
2023-02-17T00:18:32.690Z,7.53
2023-02-17T00:20:37.132Z,7.85
2023-02-17T00:22:57.419Z,7.78
2023-02-17T00:25:17.492Z,8.30
2023-02-17T00:27:21.577Z,8.98
2023-02-17T00:29:26.216Z,8.70
2023-02-17T00:31:30.729Z,9.20
2023-02-17T00:33:35.247Z,10.15
2023-02-17T00:35:39.170Z,10.02
2023-02-17T00:37:40.685Z,9.07
2023-02-17T00:39:44.926Z,9.52
2023-02-17T00:42:05.172Z,10.45
2023-02-17T00:44:25.114Z,9.23
2023-02-17T00:46:26.896Z,9.65
2023-02-17T00:48:47.804Z,10.13
2023-02-17T00:51:08.157Z,10.70
2023-02-17T00:53:09.772Z,10.38
2023-02-17T00:55:11.163Z,10.50
2023-02-17T00:57:12.734Z,11.35
2023-02-17T00:59:14.254Z,9.70
2023-02-17T01:01:18.418Z,10.02
2023-02-17T01:03:19.916Z,9.20
2023-02-17T01:05:21.411Z,9.70
2023-02-17T01:07:22.912Z,9.45
2023-02-17T01:09:27.381Z,9.68
2023-02-17T01:11:31.354Z,10.57
2023-02-17T01:13:35.638Z,10.13
2023-02-17T01:15:40.863Z,10.48
2023-02-17T01:17:45.408Z,10.07
2023-02-17T01:19:49.717Z,10.90
2023-02-17T01:21:51.231Z,11.30
2023-02-17T01:23:53.693Z,10.70
2023-02-17T01:25:55.178Z,11.23
2023-02-17T01:27:59.815Z,11.20
2023-02-17T01:30:01.512Z,10.65
2023-02-17T01:32:03.144Z,10.18
2023-02-17T01:34:05.032Z,10.10
2023-02-17T01:36:07.488Z,12.60
2023-02-17T01:38:12.340Z,10.35
2023-02-17T01:40:14.595Z,10.30
2023-02-17T01:42:16.956Z,11.20
2023-02-17T01:44:18.535Z,11.13
2023-02-17T01:46:20.054Z,10.98
2023-02-17T01:48:27.440Z,11.55
2023-02-17T01:50:33.326Z,11.85
2023-02-17T01:52:39.410Z,10.48
2023-02-17T01:55:05.363Z,10.70
2023-02-17T01:57:07.108Z,10.25
2023-02-17T01:59:12.631Z,10.13
2023-02-17T02:01:32.948Z,10.00
2023-02-17T02:03:36.911Z,10.52
2023-02-17T02:05:39.826Z,10.05
2023-02-17T02:07:45.786Z,9.90
2023-02-17T02:09:50.624Z,9.90
2023-02-17T02:12:01.371Z,8.43
2023-02-17T02:14:10.613Z,8.85
2023-02-17T02:16:17.135Z,8.20
2023-02-17T02:18:29.794Z,7.40
2023-02-17T02:20:50.286Z,8.38
2023-02-17T02:23:17.752Z,7.93
2023-02-17T02:25:25.769Z,7.28
2023-02-17T02:27:27.390Z,7.28
2023-02-17T02:29:28.936Z,7.35
2023-02-17T02:31:41.125Z,6.32
2023-02-17T02:33:43.126Z,6.05
2023-02-17T02:36:10.675Z,6.68
2023-02-17T02:38:12.754Z,5.88
2023-02-17T02:40:19.976Z,5.32
2023-02-17T02:42:26.796Z,5.47
2023-02-17T02:44:31.679Z,5.30
2023-02-17T02:47:06.423Z,4.88
2023-02-17T02:49:09.701Z,5.13
2023-02-17T02:51:16.047Z,4.90
2023-02-17T02:53:20.680Z,5.43
2023-02-17T02:55:28.347Z,4.75
2023-02-17T02:58:11.253Z,5.30
2023-02-17T03:00:20.637Z,5.82
2023-02-17T03:04:44.551Z,5.15
2023-02-17T03:07:01.811Z,4.60
2023-02-17T03:09:06.704Z,5.53
2023-02-17T03:11:08.164Z,4.82
2023-02-17T03:13:12.211Z,5.20
2023-02-17T03:17:17.817Z,5.25
2023-02-17T03:21:23.804Z,4.95
2023-02-17T03:23:28.091Z,5.25
2023-02-17T03:25:29.558Z,4.70
2023-02-17T03:27:31.047Z,4.85
2023-02-17T03:29:32.616Z,5.10
2023-02-17T03:31:34.435Z,5.05
2023-02-17T03:33:35.950Z,4.70
2023-02-17T03:35:40.029Z,4.72
2023-02-17T03:37:44.366Z,4.60
2023-02-17T03:39:45.820Z,6.35
2023-02-17T03:41:50.505Z,5.20
2023-02-17T03:43:54.671Z,4.75
2023-02-17T03:45:56.538Z,4.85
2023-02-17T03:48:00.487Z,4.15
2023-02-17T03:50:20.616Z,4.80
2023-02-17T03:52:22.092Z,4.75
2023-02-17T03:56:27.732Z,4.93
2023-02-17T03:58:29.186Z,4.43
2023-02-17T04:00:49.243Z,4.68
2023-02-17T04:02:53.318Z,4.93
2023-02-17T04:04:54.798Z,5.03
2023-02-17T04:06:59.071Z,4.63
2023-02-17T04:09:03.346Z,5.25
2023-02-17T04:11:08.413Z,5.15
2023-02-17T04:13:10.077Z,5.13
2023-02-17T04:15:14.626Z,4.75
2023-02-17T04:17:18.774Z,4.55
2023-02-17T04:19:21.293Z,4.93
2023-02-17T04:21:25.692Z,4.55
2023-02-17T04:23:27.215Z,4.95
2023-02-17T04:25:33.496Z,5.05
2023-02-17T04:27:37.827Z,4.10
2023-02-17T04:29:42.169Z,4.82
2023-02-17T04:31:46.728Z,5.20
2023-02-17T04:33:50.896Z,4.30
2023-02-17T04:35:59.317Z,4.78
2023-02-17T04:38:03.645Z,4.85
2023-02-17T04:40:10.559Z,3.60
2023-02-17T04:42:14.748Z,4.00
2023-02-17T04:44:16.345Z,4.47
2023-02-17T04:48:21.989Z,4.57
2023-02-17T04:50:23.590Z,4.57
2023-02-17T04:52:28.036Z,4.43
2023-02-17T04:54:32.369Z,4.45
2023-02-17T04:56:33.901Z,4.40
2023-02-17T04:58:37.595Z,4.20
2023-02-17T05:00:41.418Z,4.72
2023-02-17T05:02:48.612Z,4.03
2023-02-17T05:04:52.732Z,4.72
2023-02-17T05:06:56.286Z,4.93
2023-02-17T05:08:59.291Z,4.57
2023-02-17T05:11:01.437Z,4.05
2023-02-17T05:13:05.118Z,4.22
2023-02-17T05:15:11.882Z,4.28
2023-02-17T05:19:20.825Z,3.58
2023-02-17T05:21:22.684Z,3.03
2023-02-17T05:23:25.423Z,3.13
2023-02-17T05:25:28.938Z,2.95
2023-02-17T05:27:35.387Z,2.10
2023-02-17T05:29:38.776Z,1.80
2023-02-17T05:31:43.506Z,1.42
2023-02-17T05:34:03.913Z,1.75
2023-02-17T05:36:11.293Z,1.27
2023-02-17T05:38:12.726Z,1.35
2023-02-17T05:40:17.079Z,1.50
2023-02-17T05:42:18.537Z,1.52
2023-02-17T05:44:38.657Z,1.67
2023-02-17T05:46:40.256Z,1.27
2023-02-17T05:48:41.773Z,1.77
2023-02-17T05:50:43.546Z,1.13
2023-02-17T05:52:47.679Z,0.90
2023-02-17T05:54:49.121Z,0.70
2023-02-17T05:56:50.568Z,1.00
2023-02-17T05:58:52.237Z,0.98
2023-02-17T06:00:53.708Z,0.50
2023-02-17T06:04:59.328Z,0.60
2023-02-17T06:07:00.794Z,1.55
2023-02-17T06:09:02.492Z,1.13
2023-02-17T06:11:22.740Z,0.98
2023-02-17T06:13:24.177Z,1.00
2023-02-17T06:17:32.828Z,0.50
2023-02-17T06:19:34.262Z,0.90
2023-02-17T06:21:36.345Z,0.80
2023-02-17T06:23:37.891Z,0.55
2023-02-17T06:25:42.308Z,0.70
2023-02-17T06:27:46.701Z,0.85
2023-02-17T06:31:52.574Z,0.70
2023-02-17T06:33:54.188Z,0.50
2023-02-17T06:35:55.879Z,0.43
2023-02-17T06:37:57.344Z,0.65
2023-02-17T06:39:58.924Z,0.30
2023-02-17T06:42:00.439Z,0.30
2023-02-17T06:44:01.925Z,0.95
2023-02-17T06:46:03.640Z,0.60
2023-02-17T06:48:07.919Z,0.45
2023-02-17T06:50:12.361Z,0.50
2023-02-17T06:54:18.065Z,0.43
2023-02-17T06:56:22.650Z,0.40
2023-02-17T07:00:31.290Z,0.47
2023-02-17T07:02:39.248Z,0.88
2023-02-17T07:04:44.162Z,0.70
2023-02-17T07:06:48.333Z,0.47
2023-02-17T07:08:50.167Z,0.77
2023-02-17T07:10:54.726Z,0.50
2023-02-17T07:12:56.293Z,0.52
2023-02-17T07:17:04.642Z,0.60
2023-02-17T07:19:08.902Z,0.60
2023-02-17T07:23:17.742Z,0.65
2023-02-17T07:25:21.883Z,0.55
2023-02-17T07:27:26.368Z,0.57
2023-02-17T07:29:28.043Z,0.70
2023-02-17T07:31:32.702Z,0.70
2023-02-17T07:33:37.486Z,1.25
2023-02-17T07:35:46.401Z,0.50
2023-02-17T07:37:51.676Z,0.82
2023-02-17T07:39:53.173Z,0.85
2023-02-17T07:41:54.676Z,0.35
2023-02-17T07:43:59.393Z,0.63
2023-02-17T07:46:00.870Z,0.55
2023-02-17T07:48:02.299Z,0.57
2023-02-17T07:50:22.377Z,0.73
2023-02-17T07:52:26.460Z,0.80
2023-02-17T07:54:30.854Z,0.85
2023-02-17T07:56:33.802Z,0.80
2023-02-17T07:58:39.013Z,0.70
2023-02-17T08:00:42.324Z,0.70
2023-02-17T08:02:48.882Z,0.82
2023-02-17T08:04:53.932Z,1.48
2023-02-17T08:07:01.479Z,3.15
2023-02-17T08:11:48.204Z,0.73
2023-02-17T08:13:51.271Z,1.25
2023-02-17T08:15:58.022Z,0.93
2023-02-17T08:18:06.008Z,0.75
2023-02-17T08:20:09.926Z,1.10
2023-02-17T08:22:15.387Z,1.10
2023-02-17T08:24:22.150Z,1.23
2023-02-17T08:26:28.954Z,2.03
2023-02-17T08:28:31.651Z,1.17
2023-02-17T08:30:36.929Z,1.50
2023-02-17T08:32:59.121Z,1.10
2023-02-17T08:35:03.184Z,1.13
2023-02-17T08:37:08.023Z,1.00
2023-02-17T08:39:15.643Z,1.40
2023-02-17T08:41:37.012Z,1.00
2023-02-17T08:43:38.593Z,1.05
2023-02-17T08:45:40.457Z,0.95
2023-02-17T08:47:44.824Z,0.43
2023-02-17T08:49:46.272Z,0.35
2023-02-17T08:51:51.083Z,0.70
2023-02-17T08:53:56.425Z,0.73
2023-02-17T08:56:00.523Z,0.30
2023-02-17T08:58:02.010Z,0.65
2023-02-17T09:02:11.346Z,1.35
2023-02-17T09:04:13.433Z,0.52
2023-02-17T09:06:15.847Z,0.80
2023-02-17T09:08:20.063Z,0.80
2023-02-17T09:10:21.526Z,1.10
2023-02-17T09:12:25.928Z,1.95
2023-02-17T09:14:30.422Z,0.70
2023-02-17T09:16:32.122Z,0.25
2023-02-17T09:18:33.600Z,0.70
2023-02-17T09:20:35.876Z,1.50
2023-02-17T09:22:40.223Z,0.57
2023-02-17T09:24:44.579Z,0.40
2023-02-17T09:26:46.296Z,0.45
2023-02-17T09:28:47.849Z,0.55
2023-02-17T09:30:49.425Z,0.45
2023-02-17T09:32:53.717Z,0.70
2023-02-17T09:34:58.869Z,0.82
2023-02-17T09:37:00.320Z,0.50
2023-02-17T09:39:04.883Z,0.40
2023-02-17T09:43:20.447Z,0.50
2023-02-17T09:45:27.287Z,1.45
2023-02-17T09:47:31.249Z,1.30
2023-02-17T09:50:07.949Z,0.30
2023-02-17T09:52:16.284Z,0.68
2023-02-17T09:54:31.312Z,0.80
2023-02-17T09:56:35.031Z,0.55
2023-02-17T09:58:46.664Z,1.00
2023-02-17T10:00:50.871Z,0.60
2023-02-17T10:03:01.222Z,0.60
2023-02-17T10:05:07.422Z,0.90
2023-02-17T10:07:08.886Z,0.73
2023-02-17T10:09:19.654Z,0.40
2023-02-17T10:11:48.061Z,0.90
2023-02-17T10:13:52.936Z,0.40
2023-02-17T10:15:55.048Z,0.40
2023-02-17T10:18:17.413Z,0.50
2023-02-17T10:20:37.396Z,0.73
2023-02-17T10:22:39.978Z,0.50
2023-02-17T10:24:41.956Z,0.40
2023-02-17T10:26:53.497Z,0.35
2023-02-17T10:28:57.907Z,0.63
2023-02-17T10:31:04.324Z,0.40
2023-02-17T10:33:11.701Z,0.93
2023-02-17T10:35:17.202Z,0.30
2023-02-17T10:37:27.179Z,0.47
2023-02-17T10:39:37.325Z,0.30
2023-02-17T10:41:40.288Z,1.40
2023-02-17T10:43:45.176Z,0.38
2023-02-17T10:45:51.168Z,0.20
2023-02-17T10:48:01.581Z,0.20
2023-02-17T10:50:08.389Z,0.65
2023-02-17T10:52:11.618Z,0.30
2023-02-17T10:54:29.678Z,0.13
2023-02-17T10:56:41.629Z,0.30
2023-02-17T10:58:45.844Z,0.28
2023-02-17T11:00:49.795Z,0.13
2023-02-17T11:02:54.047Z,0.10
2023-02-17T11:04:55.854Z,1.40
2023-02-17T11:07:02.060Z,0.40
2023-02-17T11:09:35.405Z,0.32
2023-02-17T11:11:53.968Z,0.20
2023-02-17T11:14:05.290Z,0.63
2023-02-17T11:16:22.054Z,0.30
2023-02-17T11:18:28.891Z,0.40
2023-02-17T11:20:51.440Z,0.40
2023-02-17T11:23:15.092Z,0.40
2023-02-17T11:25:22.376Z,0.40
2023-02-17T11:27:27.933Z,0.35
2023-02-17T11:29:30.470Z,0.50
2023-02-17T11:31:40.349Z,0.88
2023-02-17T11:33:51.080Z,0.40
2023-02-17T11:36:21.881Z,0.98
2023-02-17T11:38:26.232Z,0.45
2023-02-17T11:40:32.924Z,0.35
2023-02-17T11:42:38.310Z,0.63
2023-02-17T11:45:02.282Z,0.80
2023-02-17T11:47:27.590Z,0.60
2023-02-17T11:49:55.538Z,0.60
2023-02-17T11:51:59.731Z,0.30
2023-02-17T11:54:04.915Z,0.38
2023-02-17T11:56:19.464Z,0.47
2023-02-17T11:58:38.901Z,0.30
2023-02-17T12:01:05.094Z,0.40
2023-02-17T12:03:18.649Z,0.40
2023-02-17T12:05:20.405Z,0.93
2023-02-17T12:07:35.282Z,0.50
2023-02-17T12:09:48.846Z,0.40
2023-02-17T12:12:27.966Z,0.52
2023-02-17T12:14:39.874Z,1.13
2023-02-17T12:16:50.663Z,0.40
2023-02-17T12:19:04.435Z,1.20
2023-02-17T12:21:17.727Z,0.57
2023-02-17T12:23:25.921Z,1.55
2023-02-17T12:25:30.857Z,0.90
2023-02-17T12:27:51.041Z,1.10
2023-02-17T12:30:00.463Z,0.75
2023-02-17T12:32:31.541Z,0.60
2023-02-17T12:34:41.881Z,0.88
2023-02-17T12:36:43.609Z,0.50
2023-02-17T12:38:53.300Z,0.70
2023-02-17T12:40:57.761Z,0.80
2023-02-17T12:43:01.459Z,0.88
2023-02-17T12:45:05.016Z,0.40
2023-02-17T12:47:10.259Z,1.05
2023-02-17T12:49:14.166Z,0.40
2023-02-17T12:51:28.681Z,0.98
2023-02-17T12:53:33.080Z,0.50
2023-02-17T12:55:41.728Z,0.40
2023-02-17T12:57:55.832Z,0.40
2023-02-17T12:59:58.773Z,0.30
2023-02-17T13:02:01.796Z,0.77
2023-02-17T13:04:14.961Z,0.68
2023-02-17T13:06:19.178Z,0.40
2023-02-17T13:08:28.215Z,0.60
2023-02-17T13:10:31.926Z,0.60
2023-02-17T13:12:35.735Z,1.05
2023-02-17T13:14:41.483Z,0.45
2023-02-17T13:16:46.428Z,0.50
2023-02-17T13:18:51.984Z,0.75
2023-02-17T13:20:59.096Z,0.52
2023-02-17T13:23:04.984Z,0.55
2023-02-17T13:25:31.922Z,0.60
2023-02-17T13:27:34.930Z,1.30
2023-02-17T13:29:39.193Z,0.43
2023-02-17T13:31:47.865Z,0.32
2023-02-17T13:33:51.381Z,0.47
2023-02-17T13:35:52.990Z,0.82
2023-02-17T13:37:54.955Z,0.73
2023-02-17T13:40:09.162Z,0.60
2023-02-17T13:42:31.408Z,0.50
2023-02-17T13:44:34.197Z,0.70
2023-02-17T13:46:38.245Z,0.57
2023-02-17T13:48:59.737Z,0.98
2023-02-17T13:51:05.848Z,0.75
2023-02-17T13:53:24.047Z,1.00
2023-02-17T13:55:28.424Z,1.60
2023-02-17T13:57:33.582Z,2.53
2023-02-17T13:59:38.196Z,1.20
2023-02-17T14:01:41.503Z,0.52
2023-02-17T14:03:46.562Z,0.98
2023-02-17T14:05:48.767Z,0.82
2023-02-17T14:07:50.292Z,0.70
2023-02-17T14:12:19.373Z,1.23
2023-02-17T14:14:43.219Z,0.82
2023-02-17T14:17:08.945Z,0.80
2023-02-17T14:19:31.412Z,1.02
2023-02-17T14:21:35.246Z,1.10
2023-02-17T14:23:42.996Z,1.25
2023-02-17T14:25:52.846Z,1.00
2023-02-17T14:27:56.603Z,1.02
2023-02-17T14:29:59.339Z,0.75
2023-02-17T14:32:38.739Z,0.88
2023-02-17T14:34:41.202Z,2.03
2023-02-17T14:36:48.072Z,1.60
2023-02-17T14:40:56.696Z,0.90
2023-02-17T14:42:58.676Z,1.67
2023-02-17T14:45:03.469Z,1.10
2023-02-17T14:47:06.375Z,2.78
2023-02-17T14:49:10.455Z,1.02
2023-02-17T14:51:16.129Z,0.98
2023-02-17T14:53:24.630Z,1.63
2023-02-17T14:55:35.043Z,1.30
2023-02-17T14:57:39.187Z,1.33
2023-02-17T14:59:44.038Z,2.00
2023-02-17T15:01:48.463Z,1.00
2023-02-17T15:03:53.304Z,1.20
2023-02-17T15:05:55.144Z,1.55
2023-02-17T15:08:00.008Z,1.75
2023-02-17T15:10:14.258Z,3.67
2023-02-17T15:12:19.943Z,4.68
2023-02-17T15:14:23.930Z,2.25
2023-02-17T15:16:28.507Z,1.83
2023-02-17T15:18:32.926Z,3.42
2023-02-17T15:20:34.373Z,1.48
2023-02-17T15:22:41.677Z,1.63
2023-02-17T15:24:45.985Z,1.00
2023-02-17T15:26:50.446Z,1.63
2023-02-17T15:28:57.086Z,1.25
2023-02-17T15:31:01.567Z,1.52
2023-02-17T15:33:10.302Z,1.10
2023-02-17T15:35:14.261Z,0.70
2023-02-17T15:37:15.806Z,0.93
2023-02-17T15:39:18.879Z,1.08
2023-02-17T15:41:24.660Z,1.00
2023-02-17T15:45:40.705Z,0.90
2023-02-17T15:47:42.202Z,1.17
2023-02-17T15:49:43.884Z,1.10
2023-02-17T15:52:03.957Z,0.80
2023-02-17T15:54:08.055Z,0.95
2023-02-17T15:58:16.619Z,0.85
2023-02-17T16:00:36.893Z,0.70
2023-02-17T16:02:41.285Z,0.80
2023-02-17T16:05:01.740Z,0.95
2023-02-17T16:07:03.248Z,0.60
2023-02-17T16:11:12.026Z,0.88
2023-02-17T16:13:15.591Z,0.60
2023-02-17T16:15:21.265Z,0.60
2023-02-17T16:17:25.801Z,0.70
2023-02-17T16:19:31.532Z,0.65
2023-02-17T16:21:35.623Z,0.47
2023-02-17T16:26:00.837Z,0.80
2023-02-17T16:28:02.432Z,0.80
2023-02-17T16:30:35.955Z,0.90
2023-02-17T16:32:37.698Z,0.60
2023-02-17T16:34:42.806Z,0.70
2023-02-17T16:36:48.093Z,1.20
2023-02-17T16:38:50.648Z,0.80
2023-02-17T16:40:55.393Z,0.60
2023-02-17T16:42:57.413Z,0.90
2023-02-17T16:45:01.703Z,1.10
2023-02-17T16:47:03.324Z,1.38
2023-02-17T16:49:18.211Z,1.45
2023-02-17T16:51:22.274Z,1.08
2023-02-17T16:53:24.365Z,0.57
2023-02-17T16:55:29.756Z,1.10
2023-02-17T16:57:31.347Z,1.67
2023-02-17T16:59:38.468Z,1.98
2023-02-17T17:03:47.367Z,1.00
2023-02-17T17:05:49.914Z,1.85
2023-02-17T17:07:54.339Z,0.80
2023-02-17T17:10:14.763Z,0.60
2023-02-17T17:12:20.121Z,0.90
2023-02-17T17:14:25.053Z,0.77
2023-02-17T17:16:52.023Z,1.75
2023-02-17T17:18:54.409Z,1.48
2023-02-17T17:21:00.780Z,0.95
2023-02-17T17:23:09.838Z,1.25
2023-02-17T17:25:17.739Z,0.68
2023-02-17T17:27:19.844Z,0.80
2023-02-17T17:29:23.070Z,1.10
2023-02-17T17:31:30.244Z,1.00
2023-02-17T17:33:36.689Z,0.90
2023-02-17T17:35:39.726Z,0.93
2023-02-17T17:37:45.208Z,0.93
2023-02-17T17:39:51.315Z,1.35
2023-02-17T17:41:59.001Z,2.33
2023-02-17T17:44:02.459Z,1.02
2023-02-17T17:46:16.552Z,0.70
2023-02-17T17:48:22.472Z,1.05
2023-02-17T17:50:28.354Z,1.00
2023-02-17T17:52:37.236Z,1.10
2023-02-17T17:54:39.094Z,1.20
2023-02-17T17:56:42.907Z,1.30
2023-02-17T17:58:50.225Z,1.27
2023-02-17T18:00:53.013Z,1.10
2023-02-17T18:02:54.548Z,1.10
2023-02-17T18:04:58.724Z,1.02
2023-02-17T18:07:00.596Z,1.13
2023-02-17T18:09:05.976Z,0.73
2023-02-17T18:11:11.604Z,1.80
2023-02-17T18:13:16.499Z,1.27
2023-02-17T18:15:20.608Z,1.20
2023-02-17T18:17:23.656Z,1.05
2023-02-17T18:19:29.355Z,1.10
2023-02-17T18:21:35.723Z,2.03
2023-02-17T18:23:37.285Z,1.58
2023-02-17T18:25:57.549Z,1.55
2023-02-17T18:27:59.048Z,1.60
2023-02-17T18:30:00.697Z,2.28
2023-02-17T18:32:02.296Z,2.25
2023-02-17T18:34:04.048Z,1.83
2023-02-17T18:36:06.986Z,1.92
2023-02-17T18:38:12.007Z,1.63
2023-02-17T18:40:18.070Z,3.15
2023-02-17T18:42:22.117Z,3.22
2023-02-17T18:44:23.525Z,3.13
2023-02-17T18:46:28.576Z,3.15
2023-02-17T18:48:32.846Z,3.00
2023-02-17T18:50:34.974Z,3.00
2023-02-17T18:52:40.205Z,4.32
2023-02-17T18:54:45.077Z,3.30
2023-02-17T18:56:49.106Z,3.17
2023-02-17T18:58:51.574Z,3.50
2023-02-17T19:00:56.353Z,3.42
2023-02-17T19:03:00.691Z,3.45
2023-02-17T19:05:08.631Z,3.55
2023-02-17T19:07:12.824Z,3.90
2023-02-17T19:09:14.274Z,2.92
2023-02-17T19:13:38.568Z,3.35
2023-02-17T19:17:47.616Z,3.60
2023-02-17T19:19:51.815Z,3.30
2023-02-17T19:22:11.719Z,3.40
2023-02-17T19:26:18.979Z,2.78
2023-02-17T19:28:20.423Z,3.20
2023-02-17T19:32:46.562Z,2.90
2023-02-17T19:34:57.854Z,2.80
2023-02-17T19:37:21.245Z,4.50
2023-02-17T19:41:31.031Z,3.40
2023-02-17T19:43:38.658Z,2.53
2023-02-17T19:45:43.976Z,2.80
2023-02-17T19:47:48.865Z,2.90
2023-02-17T19:49:53.402Z,3.35
2023-02-17T19:51:58.589Z,3.22
2023-02-17T19:54:01.277Z,2.40
2023-02-17T19:56:09.184Z,3.60
2023-02-17T19:58:12.893Z,2.72
2023-02-17T20:02:21.851Z,2.85
2023-02-17T20:04:26.696Z,4.72
2023-02-17T20:06:33.066Z,4.50
2023-02-17T20:08:34.602Z,2.90
2023-02-17T20:10:38.979Z,4.03
2023-02-17T20:12:43.096Z,3.40
2023-02-17T20:14:47.695Z,3.28
2023-02-17T20:16:49.423Z,3.22
2023-02-17T20:18:51.138Z,4.22
2023-02-17T20:20:55.638Z,4.18
2023-02-17T20:22:57.135Z,3.53
2023-02-17T20:25:00.504Z,3.80
2023-02-17T20:27:22.572Z,3.72
2023-02-17T20:29:28.151Z,3.53
2023-02-17T20:31:36.855Z,3.53
2023-02-17T20:33:43.282Z,4.25
2023-02-17T20:37:53.477Z,4.13
2023-02-17T20:39:57.418Z,5.03
2023-02-17T20:42:01.622Z,4.50
2023-02-17T20:46:12.032Z,4.03
2023-02-17T20:48:17.897Z,4.30
2023-02-17T20:50:24.492Z,5.07
2023-02-17T20:52:26.432Z,4.20
2023-02-17T20:54:32.215Z,4.30
2023-02-17T20:56:37.205Z,5.10
2023-02-17T20:58:43.864Z,4.38
2023-02-17T21:00:48.806Z,3.65
2023-02-17T21:02:52.344Z,5.05
2023-02-17T21:04:54.279Z,3.58
2023-02-17T21:07:01.022Z,3.47
2023-02-17T21:09:08.154Z,3.97
2023-02-17T21:11:12.556Z,4.70
2023-02-17T21:15:18.204Z,3.80
2023-02-17T21:17:19.733Z,3.58
2023-02-17T21:19:21.293Z,4.25
2023-02-17T21:21:26.615Z,3.33
2023-02-17T21:23:34.543Z,4.57
2023-02-17T21:25:38.952Z,4.65
2023-02-17T21:27:43.323Z,3.72
2023-02-17T21:29:47.662Z,4.60
2023-02-17T21:31:49.523Z,3.90
2023-02-17T21:33:54.088Z,3.90
2023-02-17T21:35:56.028Z,4.70
2023-02-17T21:38:16.864Z,4.13
2023-02-17T21:40:18.349Z,4.93
2023-02-17T21:42:44.637Z,4.43
2023-02-17T21:44:53.082Z,4.90
2023-02-17T21:47:13.130Z,5.50
2023-02-17T21:49:17.610Z,4.68
2023-02-17T21:51:25.372Z,4.22
2023-02-17T21:53:27.018Z,5.18
2023-02-17T21:55:31.902Z,6.10
2023-02-17T21:57:33.393Z,5.50
2023-02-17T21:59:35.049Z,5.15
2023-02-17T22:01:36.937Z,5.20
2023-02-17T22:03:41.418Z,5.05
2023-02-17T22:05:45.961Z,4.82
2023-02-17T22:07:48.238Z,5.18
2023-02-17T22:09:49.801Z,5.40
2023-02-17T22:11:57.386Z,4.68
2023-02-17T22:14:03.516Z,3.88
2023-02-17T22:16:08.595Z,3.30
2023-02-17T22:18:10.306Z,2.88
2023-02-17T22:20:12.159Z,2.65
2023-02-17T22:22:16.143Z,2.38
2023-02-17T22:24:17.881Z,2.10
2023-02-17T22:26:21.630Z,2.78
2023-02-17T22:28:41.972Z,2.28
2023-02-17T22:30:49.741Z,1.80
2023-02-17T22:32:51.210Z,1.52
2023-02-17T22:34:52.653Z,2.17
2023-02-17T22:36:54.390Z,1.27
2023-02-17T22:38:55.943Z,1.35
2023-02-17T22:41:00.481Z,1.35
2023-02-17T22:43:10.042Z,1.13
2023-02-17T22:45:37.861Z,1.08
2023-02-17T22:47:44.128Z,0.90
2023-02-17T22:50:09.565Z,0.85
2023-02-17T22:52:15.797Z,0.98
2023-02-17T22:54:21.376Z,1.13
2023-02-17T22:56:29.407Z,0.88
2023-02-17T22:58:35.294Z,0.73
2023-02-17T23:01:09.898Z,0.70
2023-02-17T23:03:37.865Z,0.90
2023-02-17T23:05:44.678Z,0.77
2023-02-17T23:07:53.947Z,0.98
2023-02-17T23:10:16.086Z,0.82
2023-02-17T23:12:29.074Z,1.10
2023-02-17T23:14:36.653Z,1.38
2023-02-17T23:16:46.129Z,0.80
2023-02-17T23:18:49.736Z,1.00
2023-02-17T23:20:56.388Z,0.93
2023-02-17T23:23:03.031Z,1.25
2023-02-17T23:25:06.773Z,0.85
2023-02-17T23:27:11.393Z,0.93
2023-02-17T23:29:33.997Z,1.15
2023-02-17T23:33:37.280Z,1.08
2023-02-17T23:35:44.756Z,1.10
2023-02-17T23:37:46.293Z,0.80
2023-02-17T23:39:47.798Z,0.80
2023-02-17T23:41:52.321Z,1.80
2023-02-17T23:44:13.028Z,0.75
2023-02-17T23:46:17.434Z,0.82
2023-02-17T23:48:18.844Z,1.17
2023-02-17T23:52:27.314Z,0.70
2023-02-17T23:54:31.484Z,0.98
2023-02-17T23:56:51.588Z,1.10
2023-02-17T23:59:11.699Z,1.52
